createdAt,value
2019-03-21T15:22:30.884Z,48.63
2019-03-21T15:23:36.074Z,47.45
2019-03-21T15:24:28.942Z,47.39
2019-03-21T15:25:27.955Z,48.47
2019-03-21T15:26:27.896Z,48.02
2019-03-21T15:27:27.797Z,47.90
2019-03-21T15:28:27.806Z,48.22
2019-03-21T15:29:27.772Z,47.00
2019-03-21T15:30:27.761Z,48.22
2019-03-21T15:31:27.809Z,48.22
2019-03-21T15:32:27.751Z,46.85
2019-03-21T15:33:27.742Z,45.18
2019-03-21T15:34:27.769Z,44.76
2019-03-21T15:35:27.730Z,44.90
2019-03-21T15:36:56.207Z,47.35
2019-03-21T15:37:27.689Z,46.85
2019-03-21T15:38:27.973Z,48.43
2019-03-21T15:39:27.668Z,48.72
2019-03-21T15:40:27.692Z,49.76
2019-03-21T15:41:35.265Z,49.68
2019-03-21T15:42:27.632Z,49.43
2019-03-21T15:43:27.621Z,48.70
2019-03-21T15:44:27.609Z,48.60
2019-03-21T15:45:27.604Z,48.60
2019-03-21T15:46:38.243Z,48.60
2019-03-21T15:47:27.614Z,47.85
2019-03-21T15:48:27.576Z,48.35
2019-03-21T15:49:27.558Z,48.08
2019-03-21T15:50:27.545Z,47.13
2019-03-21T15:51:37.204Z,46.20
2019-03-21T15:52:27.536Z,47.03
2019-03-21T15:53:27.512Z,47.75
2019-03-21T15:54:27.523Z,48.03
2019-03-21T15:55:27.486Z,47.35
2019-03-21T15:56:32.717Z,49.01
2019-03-21T15:57:27.490Z,48.38
2019-03-21T15:58:27.482Z,49.35
2019-03-21T15:59:27.442Z,52.31
2019-03-21T16:00:27.436Z,53.98
2019-03-21T16:01:27.553Z,53.45
2019-03-21T16:02:27.418Z,53.92
2019-03-21T16:03:27.400Z,53.12
2019-03-21T16:04:27.394Z,52.59
2019-03-21T16:05:27.418Z,52.26
2019-03-21T16:06:27.372Z,52.04
2019-03-21T16:12:34.198Z,50.13
2019-03-21T16:13:32.063Z,50.23
2019-03-21T16:14:32.087Z,50.13
2019-03-21T16:15:32.019Z,48.93
2019-03-21T16:16:32.013Z,50.68
2019-03-21T16:17:32.010Z,51.64
2019-03-21T16:20:36.260Z,51.84
2019-03-21T16:21:36.273Z,51.86
2019-03-21T16:22:36.229Z,53.22
2019-03-21T16:24:09.698Z,53.42
2019-03-21T16:24:36.227Z,53.30
2019-03-21T16:25:36.279Z,53.07
2019-03-21T16:26:36.959Z,52.44
2019-03-21T16:27:36.153Z,52.11
2019-03-21T16:28:47.042Z,52.87
2019-03-21T16:29:36.125Z,53.07
2019-03-21T16:30:36.114Z,53.20
2019-03-21T16:31:36.151Z,53.63
2019-03-21T16:32:36.097Z,53.72
2019-03-21T16:33:50.478Z,54.16
2019-03-21T16:34:36.078Z,53.72
2019-03-21T16:35:36.064Z,54.46
2019-03-21T16:36:36.076Z,54.58
2019-03-21T16:37:36.048Z,55.32
2019-03-21T16:41:52.995Z,55.87
2019-03-21T16:42:52.987Z,57.85
2019-03-21T16:43:52.999Z,58.25
2019-03-21T16:44:52.955Z,58.23
2019-03-21T16:45:52.949Z,58.45
2019-03-21T16:46:52.965Z,58.89
2019-03-21T16:47:52.938Z,58.89
2019-03-21T16:48:52.937Z,60.63
2019-03-21T16:50:07.678Z,60.03
2019-03-21T16:50:52.878Z,60.97
2019-03-21T16:51:52.832Z,61.30
2019-03-21T16:52:52.821Z,62.11
2019-03-21T16:53:52.871Z,62.72
2019-03-21T16:54:59.692Z,62.62
2019-03-21T16:55:52.793Z,61.17
2019-03-21T16:56:52.779Z,60.94
2019-03-21T16:57:52.762Z,59.83
2019-03-21T16:58:52.798Z,59.09
2019-03-21T17:00:12.686Z,59.06
2019-03-21T17:00:52.736Z,58.45
2019-03-21T17:01:52.732Z,58.73
2019-03-21T17:02:52.708Z,58.50
2019-03-21T17:03:52.722Z,58.00
2019-03-21T17:04:52.685Z,58.09
2019-03-21T17:06:11.686Z,57.89
2019-03-21T17:06:52.662Z,57.79
2019-03-21T17:07:52.656Z,57.79
2019-03-21T17:08:52.647Z,58.40
2019-03-21T17:09:52.641Z,58.09
2019-03-21T17:10:57.217Z,58.73
2019-03-21T17:11:52.626Z,58.53
2019-03-21T17:12:52.596Z,58.53
2019-03-21T17:13:52.609Z,58.93
2019-03-21T17:14:52.660Z,59.39
2019-03-21T17:16:07.186Z,59.59
2019-03-21T17:16:52.548Z,59.80
2019-03-21T17:17:52.552Z,60.43
2019-03-21T17:18:52.527Z,60.94
2019-03-21T17:19:52.533Z,60.97
2019-03-21T17:20:59.191Z,61.27
2019-03-21T17:21:52.496Z,62.38
2019-03-21T17:22:52.481Z,62.29
2019-03-21T17:23:52.519Z,63.02
2019-03-21T17:24:52.460Z,63.15
2019-03-21T17:25:52.507Z,63.79
2019-03-21T17:26:55.648Z,64.30
2019-03-21T17:27:54.637Z,63.79
2019-03-21T17:28:52.414Z,64.40
2019-03-21T17:29:52.407Z,64.40
2019-03-21T17:30:52.425Z,64.64
2019-03-21T17:32:00.687Z,65.04
2019-03-21T17:32:52.371Z,65.37
2019-03-21T17:33:52.381Z,65.99
2019-03-21T17:34:52.347Z,65.88
2019-03-21T17:35:52.364Z,66.19
2019-03-21T17:37:27.663Z,67.03
2019-03-21T17:37:52.322Z,67.33
2019-03-21T17:38:52.301Z,67.44
2019-03-21T17:39:52.288Z,67.97
2019-03-21T17:40:52.293Z,67.77
2019-03-21T17:41:54.192Z,68.18
2019-03-21T17:42:52.258Z,68.18
2019-03-21T17:43:52.252Z,68.72
2019-03-21T17:44:52.238Z,68.82
2019-03-21T17:45:52.232Z,68.92
2019-03-21T17:46:55.726Z,69.02
2019-03-21T17:47:52.205Z,68.72
2019-03-21T17:48:52.262Z,69.13
2019-03-21T17:49:52.177Z,68.65
2019-03-21T17:50:52.172Z,68.85
2019-03-21T17:51:52.193Z,68.96
2019-03-21T17:52:52.163Z,69.57
2019-03-21T17:53:52.135Z,70.28
2019-03-21T17:54:52.137Z,69.87
2019-03-21T17:55:52.115Z,69.97
2019-03-21T17:56:52.153Z,69.60
2019-03-21T17:57:52.104Z,70.10
2019-03-21T17:58:52.089Z,70.72
2019-03-21T17:59:52.068Z,70.72
2019-03-21T18:00:52.094Z,71.02
2019-03-21T18:01:55.159Z,71.26
2019-03-21T18:02:52.038Z,71.26
2019-03-21T18:03:52.047Z,71.36
2019-03-21T18:04:52.010Z,71.56
2019-03-21T18:05:52.018Z,72.08
2019-03-21T18:06:52.027Z,72.21
2019-03-21T18:07:51.986Z,71.80
2019-03-21T18:08:51.965Z,72.41
2019-03-21T18:09:51.957Z,72.72
2019-03-21T18:10:51.943Z,73.13
2019-03-21T18:11:51.977Z,73.43
2019-03-21T18:15:26.545Z,73.23
2019-03-21T18:16:26.129Z,73.84
2019-03-21T18:17:26.247Z,73.43
2019-03-21T18:18:26.153Z,73.54
2019-03-21T18:19:26.258Z,73.54
2019-03-21T18:20:26.067Z,73.88
2019-03-21T18:21:26.075Z,74.18
2019-03-21T18:22:26.082Z,74.18
2019-03-21T18:23:26.029Z,74.52
2019-03-21T18:24:26.036Z,74.93
2019-03-21T18:25:26.056Z,74.83
2019-03-21T18:26:25.991Z,76.05
2019-03-21T18:27:26.013Z,75.64
2019-03-21T18:28:26.022Z,75.54
2019-03-21T18:29:25.949Z,75.23
2019-03-21T18:30:25.987Z,75.68
2019-03-21T18:31:25.938Z,75.85
2019-03-21T18:32:25.957Z,75.68
2019-03-21T18:33:26.020Z,76.29
2019-03-21T18:34:25.910Z,76.84
2019-03-21T18:35:25.885Z,76.93
2019-03-21T18:36:25.927Z,76.93
2019-03-21T18:37:25.914Z,77.89
2019-03-21T18:38:25.900Z,77.28
2019-03-21T18:39:25.882Z,78.20
2019-03-21T18:40:25.867Z,78.20
2019-03-21T18:41:25.819Z,77.89
2019-03-21T18:42:25.909Z,77.59
2019-03-21T18:43:25.800Z,77.31
2019-03-21T18:44:25.793Z,79.05
2019-03-21T18:45:25.779Z,79.46
2019-03-21T18:46:25.765Z,79.66
2019-03-21T18:47:25.798Z,79.57
2019-03-21T18:48:25.790Z,78.85
2019-03-21T18:49:25.732Z,79.12
2019-03-21T18:50:25.725Z,78.95
2019-03-21T18:51:25.715Z,79.22
2019-03-21T18:52:25.736Z,79.22
2019-03-21T18:53:25.690Z,79.16
2019-03-21T18:54:25.682Z,79.25
2019-03-21T18:55:25.695Z,79.16
2019-03-21T18:56:25.659Z,78.85
2019-03-21T18:57:25.730Z,79.05
2019-03-21T18:58:25.667Z,79.16
2019-03-21T18:59:25.637Z,79.16
2019-03-21T19:00:25.614Z,78.95
2019-03-21T19:01:25.597Z,79.46
2019-03-21T19:02:25.623Z,79.25
2019-03-21T19:03:25.638Z,79.60
2019-03-21T19:04:25.576Z,79.57
2019-03-21T19:05:25.559Z,79.29
2019-03-21T19:06:25.542Z,79.70
2019-03-21T19:07:25.580Z,80.11
2019-03-21T19:08:25.519Z,79.60
2019-03-21T19:09:25.540Z,79.64
2019-03-21T19:10:25.509Z,79.53
2019-03-21T19:11:25.493Z,80.08
2019-03-21T19:12:25.518Z,80.69
2019-03-21T19:13:25.459Z,81.96
2019-03-21T19:14:25.477Z,83.15
2019-03-21T19:15:25.443Z,82.43
2019-03-21T19:16:25.501Z,82.23
2019-03-21T19:17:25.463Z,82.43
2019-03-21T19:18:25.412Z,82.13
2019-03-21T19:19:25.401Z,82.43
2019-03-21T19:20:25.384Z,81.76
2019-03-21T19:21:25.383Z,82.48
2019-03-21T19:22:25.470Z,82.68
2019-03-21T19:23:25.357Z,83.50
2019-03-21T19:24:25.337Z,83.29
2019-03-21T19:25:25.323Z,84.01
2019-03-21T19:26:25.326Z,84.22
2019-03-21T19:27:25.345Z,84.15
2019-03-21T19:28:25.291Z,84.66
2019-03-21T19:29:25.297Z,84.66
2019-03-21T19:30:25.282Z,84.56
2019-03-21T19:31:25.288Z,84.42
2019-03-21T19:32:25.284Z,84.56
2019-03-21T19:33:25.234Z,84.46
2019-03-21T19:34:25.231Z,84.72
2019-03-21T19:35:25.262Z,84.52
2019-03-21T19:36:25.202Z,84.56
2019-03-21T19:37:25.236Z,84.22
2019-03-21T19:38:25.183Z,84.11
2019-03-21T19:39:25.170Z,83.44
2019-03-21T19:40:25.173Z,84.15
2019-03-21T19:41:25.154Z,84.77
2019-03-21T19:42:25.173Z,84.97
2019-03-21T19:43:25.129Z,84.87
2019-03-21T19:44:25.108Z,84.66
2019-03-21T19:45:25.108Z,85.17
2019-03-21T19:46:25.132Z,84.87
2019-03-21T19:47:30.218Z,84.25
2019-03-21T19:48:26.073Z,84.15
2019-03-21T19:49:25.062Z,84.15
2019-03-21T19:50:25.063Z,84.15
2019-03-21T19:51:25.080Z,84.50
2019-03-21T19:52:25.065Z,84.80
2019-03-21T19:53:25.018Z,85.01
2019-03-21T19:54:25.054Z,86.04
2019-03-21T19:55:30.800Z,86.14
2019-03-21T19:56:25.985Z,85.01
2019-03-21T19:57:25.002Z,85.11
2019-03-21T19:58:24.962Z,85.11
2019-03-21T19:59:24.940Z,85.05
2019-03-21T20:00:24.983Z,85.46
2019-03-21T20:01:24.929Z,85.15
2019-03-21T20:02:24.927Z,84.64
2019-03-21T20:03:25.040Z,84.68
2019-03-21T20:04:24.903Z,84.10
2019-03-21T20:05:24.876Z,84.41
2019-03-21T20:06:24.911Z,85.89
2019-03-21T20:07:24.897Z,87.43
2019-03-21T20:08:24.921Z,88.92
2019-03-21T20:09:24.842Z,88.35
2019-03-21T20:10:24.823Z,88.72
2019-03-21T20:11:24.807Z,88.10
2019-03-21T20:12:24.795Z,88.31
2019-03-21T20:13:24.833Z,88.31
2019-03-21T20:14:24.846Z,88.51
2019-03-21T20:15:24.776Z,88.62
2019-03-21T20:16:24.758Z,88.41
2019-03-21T20:17:24.743Z,87.59
2019-03-21T20:18:24.775Z,87.08
2019-03-21T20:19:24.721Z,87.18
2019-03-21T20:20:24.710Z,86.98
2019-03-21T20:21:24.746Z,86.57
2019-03-21T20:22:24.693Z,87.73
2019-03-21T20:23:24.721Z,87.90
2019-03-21T20:24:24.667Z,88.35
2019-03-21T20:25:24.656Z,88.04
2019-03-21T20:26:24.649Z,88.21
2019-03-21T20:27:24.641Z,88.00
2019-03-21T20:28:24.689Z,87.28
2019-03-21T20:29:24.613Z,87.90
2019-03-21T20:30:24.599Z,87.28
2019-03-21T20:31:24.585Z,87.28
2019-03-21T20:32:24.576Z,87.59
2019-03-21T20:33:24.613Z,87.38
2019-03-21T20:34:24.571Z,87.28
2019-03-21T20:35:24.557Z,87.90
2019-03-21T20:36:24.583Z,87.79
2019-03-21T20:37:24.521Z,87.32
2019-03-21T20:38:24.587Z,88.00
2019-03-21T20:39:24.506Z,88.24
2019-03-21T20:40:24.495Z,88.24
2019-03-21T20:41:24.485Z,88.29
2019-03-21T20:42:24.535Z,88.70
2019-03-21T20:43:24.503Z,88.45
2019-03-21T20:44:24.449Z,88.80
2019-03-21T20:45:24.437Z,88.39
2019-03-21T20:46:24.421Z,88.80
2019-03-21T20:47:24.416Z,88.59
2019-03-21T20:48:24.475Z,88.39
2019-03-21T20:49:24.406Z,89.36
2019-03-21T20:50:24.424Z,89.36
2019-03-21T20:51:24.378Z,89.56
2019-03-21T20:52:24.367Z,90.08
2019-03-21T20:53:24.406Z,89.31
2019-03-21T20:54:24.353Z,89.97
2019-03-21T20:55:24.385Z,90.03
2019-03-21T20:56:24.365Z,89.31
2019-03-21T20:57:24.306Z,89.52
2019-03-21T20:58:24.346Z,89.72
2019-03-21T20:59:24.280Z,89.52
2019-03-21T21:00:24.278Z,89.62
2019-03-21T21:01:24.272Z,89.56
2019-03-21T21:02:24.265Z,89.76
2019-03-21T21:03:24.326Z,89.56
2019-03-21T21:04:24.227Z,89.66
2019-03-21T21:05:24.219Z,89.36
2019-03-21T21:06:24.214Z,89.66
2019-03-21T21:07:24.212Z,90.48
2019-03-21T21:08:24.237Z,89.97
2019-03-21T21:09:24.182Z,90.28
2019-03-21T21:10:24.232Z,90.48
2019-03-21T21:11:24.164Z,90.24
2019-03-21T21:12:24.149Z,90.28
2019-03-21T21:13:24.174Z,90.59
2019-03-21T21:14:24.145Z,91.10
2019-03-21T21:15:24.135Z,91.27
2019-03-21T21:16:24.107Z,90.89
2019-03-21T21:17:24.088Z,90.48
2019-03-21T21:18:24.124Z,90.59
2019-03-21T21:19:24.068Z,91.14
2019-03-21T21:20:24.107Z,91.14
2019-03-21T21:21:24.045Z,91.55
2019-03-21T21:22:24.045Z,92.38
2019-03-21T21:23:24.072Z,92.13
2019-03-21T21:24:24.023Z,92.17
2019-03-21T21:25:24.002Z,91.61
2019-03-21T21:26:24.022Z,91.55
2019-03-21T21:27:23.987Z,91.31
2019-03-21T21:28:24.756Z,92.23
2019-03-21T21:29:23.969Z,91.76
2019-03-21T21:30:23.947Z,92.64
2019-03-21T21:31:23.943Z,92.17
2019-03-21T21:32:24.045Z,91.93
2019-03-21T21:33:23.985Z,92.33
2019-03-21T21:34:23.918Z,92.27
2019-03-21T21:35:23.893Z,92.17
2019-03-21T21:36:23.884Z,92.07
2019-03-21T21:37:23.869Z,92.85
2019-03-21T21:38:23.853Z,92.69
2019-03-21T21:39:23.883Z,93.36
2019-03-21T21:40:23.877Z,93.30
2019-03-21T21:41:23.825Z,92.95
2019-03-21T21:42:23.811Z,93.82
2019-03-21T21:43:23.800Z,93.61
2019-03-21T21:44:23.825Z,93.30
2019-03-21T21:45:23.786Z,93.36
2019-03-21T21:46:23.823Z,93.40
2019-03-21T21:47:23.792Z,94.12
2019-03-21T21:48:23.753Z,94.74
2019-03-21T21:49:23.782Z,94.23
2019-03-21T21:50:23.725Z,94.54
2019-03-21T21:51:23.719Z,94.07
2019-03-21T21:52:23.708Z,94.33
2019-03-21T21:53:23.726Z,94.74
2019-03-21T21:54:23.721Z,94.64
2019-03-21T21:55:23.675Z,94.95
2019-03-21T21:56:23.660Z,94.43
2019-03-21T21:57:23.661Z,94.12
2019-03-21T21:58:23.636Z,94.12
2019-03-21T21:59:23.676Z,94.23
2019-03-21T22:00:23.651Z,94.74
2019-03-21T22:01:23.607Z,94.78
2019-03-21T22:02:23.600Z,94.58
2019-03-21T22:03:23.584Z,94.37
2019-03-21T22:04:23.614Z,95.30
2019-03-21T22:05:23.568Z,95.09
2019-03-21T22:06:23.607Z,95.09
2019-03-21T22:07:23.545Z,95.20
2019-03-21T22:08:23.578Z,95.09
2019-03-21T22:09:23.552Z,95.71
2019-03-21T22:10:23.508Z,95.50
2019-03-21T22:11:23.497Z,95.20
2019-03-21T22:12:23.502Z,96.37
2019-03-21T22:13:23.477Z,95.92
2019-03-21T22:14:23.505Z,95.92
2019-03-21T22:15:23.477Z,96.06
2019-03-21T22:16:23.445Z,96.17
2019-03-21T22:17:23.441Z,95.96
2019-03-21T22:18:23.423Z,96.64
2019-03-21T22:19:23.455Z,96.73
2019-03-21T22:20:23.404Z,96.22
2019-03-21T22:21:23.432Z,96.33
2019-03-21T22:22:23.379Z,96.84
2019-03-21T22:23:23.374Z,96.58
2019-03-21T22:24:23.415Z,96.94
2019-03-21T22:25:23.378Z,96.73
2019-03-21T22:26:29.506Z,96.84
2019-03-21T22:27:23.326Z,96.73
2019-03-21T22:28:23.310Z,97.09
2019-03-21T22:29:23.331Z,96.84
2019-03-21T22:30:23.347Z,96.78
2019-03-21T22:31:23.283Z,97.05
2019-03-21T22:32:23.273Z,97.09
2019-03-21T22:33:23.313Z,96.68
2019-03-21T22:34:23.295Z,97.09
2019-03-21T22:35:23.230Z,97.05
2019-03-21T22:36:23.239Z,96.27
2019-03-21T22:37:23.217Z,96.89
2019-03-21T22:38:23.193Z,96.78
2019-03-21T22:39:23.304Z,97.09
2019-03-21T22:40:23.182Z,96.89
2019-03-21T22:41:23.166Z,96.89
2019-03-21T22:42:23.167Z,96.89
2019-03-21T22:43:23.150Z,97.50
2019-03-21T22:44:23.180Z,97.19
2019-03-21T22:45:23.132Z,97.19
2019-03-21T22:46:23.114Z,97.50
2019-03-21T22:47:23.108Z,97.09
2019-03-21T22:48:23.090Z,96.37
2019-03-21T22:49:23.109Z,97.24
2019-03-21T22:50:23.116Z,97.30
2019-03-21T22:51:23.055Z,96.89
2019-03-21T22:52:23.048Z,97.44
2019-03-21T22:53:23.031Z,97.50
2019-03-21T22:54:23.094Z,96.93
2019-03-21T22:55:23.009Z,96.93
2019-03-21T22:56:23.028Z,97.30
2019-03-21T22:57:23.068Z,97.03
2019-03-21T22:58:31.419Z,97.19
2019-03-21T22:59:24.006Z,97.55
2019-03-21T23:00:22.954Z,97.24
2019-03-21T23:01:22.938Z,96.89
2019-03-21T23:02:22.934Z,97.61
2019-03-21T23:03:22.956Z,97.34
2019-03-21T23:04:22.954Z,97.44
2019-03-21T23:05:22.909Z,97.86
2019-03-21T23:06:22.886Z,97.86
2019-03-21T23:07:22.878Z,97.34
2019-03-21T23:08:22.868Z,97.75
2019-03-21T23:09:22.886Z,97.34
2019-03-21T23:10:22.892Z,97.86
2019-03-21T23:11:22.826Z,97.75
2019-03-21T23:12:22.834Z,97.44
2019-03-21T23:13:22.808Z,97.86
2019-03-21T23:14:22.810Z,96.93
2019-03-21T23:15:22.834Z,97.86
2019-03-21T23:16:22.851Z,97.65
2019-03-21T23:17:22.767Z,97.14
2019-03-21T23:18:22.762Z,97.65
2019-03-21T23:19:22.787Z,97.44
2019-03-21T23:20:22.730Z,98.27
2019-03-21T23:21:22.723Z,97.65
2019-03-21T23:22:22.715Z,97.55
2019-03-21T23:23:22.762Z,97.75
2019-03-21T23:24:22.690Z,97.55
2019-03-21T23:25:22.719Z,97.96
2019-03-21T23:26:22.671Z,97.34
2019-03-21T23:27:22.654Z,97.65
2019-03-21T23:28:22.646Z,97.75
2019-03-21T23:29:22.687Z,97.65
2019-03-21T23:30:22.675Z,97.65
2019-03-21T23:31:22.609Z,97.65
2019-03-21T23:32:22.597Z,97.44
2019-03-21T23:33:22.601Z,97.55
2019-03-21T23:34:22.578Z,97.65
2019-03-21T23:35:22.623Z,97.96
2019-03-21T23:36:22.565Z,97.65
2019-03-21T23:37:22.574Z,97.96
2019-03-21T23:38:22.541Z,98.21
2019-03-21T23:39:22.516Z,97.80
2019-03-21T23:40:22.510Z,98.06
2019-03-21T23:41:22.539Z,97.44
2019-03-21T23:42:22.497Z,97.55
2019-03-21T23:43:22.470Z,97.55
2019-03-21T23:44:22.474Z,97.55
2019-03-21T23:45:22.509Z,97.55
2019-03-21T23:46:22.496Z,97.90
2019-03-21T23:47:22.434Z,97.75
2019-03-21T23:48:22.427Z,97.75
2019-03-21T23:49:22.449Z,97.96
2019-03-21T23:50:22.407Z,97.75
2019-03-21T23:51:22.426Z,97.75
2019-03-21T23:52:22.432Z,98.21
2019-03-21T23:53:22.366Z,97.90
2019-03-21T23:54:22.371Z,97.55
2019-03-21T23:55:22.347Z,97.80
2019-03-21T23:56:22.369Z,98.00
2019-03-21T23:57:22.315Z,97.96
2019-03-21T23:58:22.347Z,98.11
2019-03-21T23:59:22.307Z,98.00
